Time;durP1;ratioP1;P1;durP2;ratioP2;P2;SDS_P1;SDS_P2;PMS_P1;PMS_P2;Temp;Humidity;BMP_temperature;BMP_pressure;BME280_temperature;BME280_humidity;BME280_pressure;Samples;Min_cycle;Max_cycle;Signal;HPM_P1;HPM_P2
2021/11/17 02:28:05;;;;;;;55.57;32.03;;;9.20;1.00;;;;;;5070324;28;20476;-57
2021/11/17 02:30:49;;;;;;;54.97;30.33;;;9.30;1.00;;;;;;5070624;28;20930;-58
2021/11/17 02:33:34;;;;;;;53.63;30.80;;;9.10;1.00;;;;;;5070278;28;20563;-58
2021/11/17 02:36:15;;;;;;;51.80;31.83;;;9.30;1.00;;;;;;5070289;28;20838;-57
2021/11/17 02:39:08;;;;;;;54.57;30.60;;;9.30;1.00;;;;;;5070573;28;20512;-57
2021/11/17 02:41:40;;;;;;;53.83;32.53;;;9.20;1.00;;;;;;5070364;28;20433;-58
2021/11/17 02:44:13;;;;;;;53.90;29.80;;;9.20;1.00;;;;;;5069887;28;20994;-58
2021/11/17 02:47:03;;;;;;;49.13;29.93;;;9.20;1.00;;;;;;5070202;28;20523;-58
2021/11/17 02:49:29;;;;;;;56.33;32.43;;;;;;;;;;5070191;28;20524;-57
2021/11/17 02:52:22;;;;;;;50.13;31.10;;;9.20;1.00;;;;;;5053822;28;20489;-58
2021/11/17 02:55:13;;;;;;;49.00;29.90;;;9.20;1.00;;;;;;5050193;28;20991;-58
2021/11/17 02:57:57;;;;;;;58.90;35.73;;;9.20;1.00;;;;;;5050206;28;20446;-58
2021/11/17 03:00:51;;;;;;;58.63;35.60;;;9.10;1.00;;;;;;5048930;28;20446;-58
2021/11/17 03:03:20;;;;;;;58.83;37.07;;;;;;;;;;5049664;28;20441;-57
2021/11/17 03:06:19;;;;;;;58.13;35.10;;;9.20;1.00;;;;;;5050205;28;20431;-57
2021/11/17 03:08:53;;;;;;;50.63;32.87;;;9.30;1.00;;;;;;5048264;28;20447;-57
2021/11/17 03:11:26;;;;;;;52.67;33.60;;;9.40;1.00;;;;;;5053619;28;20442;-58
2021/11/17 03:14:07;;;;;;;60.27;35.10;;;;;;;;;;5053920;28;20918;-58
2021/11/17 03:16:41;;;;;;;52.73;33.90;;;9.40;1.00;;;;;;5053810;28;20446;-58
2021/11/17 03:19:25;;;;;;;57.87;33.57;;;9.50;1.00;;;;;;5052505;28;20474;-59
2021/11/17 03:22:15;;;;;;;59.33;33.40;;;9.40;1.00;;;;;;5053605;28;20435;-57
2021/11/17 03:24:50;;;;;;;50.97;31.70;;;9.30;1.00;;;;;;5053723;28;20884;-57
2021/11/17 03:27:30;;;;;;;50.67;29.47;;;9.30;1.00;;;;;;5053656;28;20423;-57
2021/11/17 03:30:17;;;;;;;51.43;30.73;;;9.40;1.00;;;;;;5053586;28;20454;-58
2021/11/17 03:32:43;;;;;;;48.50;29.03;;;;;;;;;;5053606;28;20463;-57
2021/11/17 03:35:12;;;;;;;50.57;31.30;;;9.40;1.00;;;;;;5053573;28;20950;-58
2021/11/17 03:38:18;;;;;;;50.37;31.27;;;9.40;1.00;;;;;;5053237;28;20414;-58
2021/11/17 03:40:56;;;;;;;47.13;29.93;;;9.30;1.00;;;;;;5046700;28;20466;-58
2021/11/17 03:43:25;;;;;;;47.80;31.70;;;;;;;;;;5053378;28;20521;-58
2021/11/17 03:45:57;;;;;;;56.37;30.87;;;;;;;;;;5053049;28;20537;-57
2021/11/17 03:48:35;;;;;;;49.93;29.27;;;9.40;1.00;;;;;;5053153;28;20456;-58
2021/11/17 03:51:19;;;;;;;49.57;30.70;;;9.90;1.00;;;;;;5053101;28;20496;-58
2021/11/17 03:53:51;;;;;;;52.63;31.60;;;9.30;1.00;;;;;;5052898;28;20736;-58
2021/11/17 03:56:23;;;;;;;62.60;31.63;;;9.30;1.00;;;;;;5053156;28;20427;-57
2021/11/17 03:58:59;;;;;;;56.40;31.73;;;;;;;;;;5052024;28;20558;-57
2021/11/17 04:01:42;;;;;;;59.00;31.83;;;9.20;1.00;;;;;;5052742;28;20453;-57
2021/11/17 04:04:56;;;;;;;53.50;30.70;;;9.00;1.00;;;;;;5052671;28;20508;-59
2021/11/17 04:07:50;;;;;;;57.10;34.07;;;9.10;1.00;;;;;;5047542;28;20438;-58
2021/11/17 04:10:57;;;;;;;52.60;30.97;;;9.00;1.00;;;;;;5052823;28;20484;-58
2021/11/17 04:13:44;;;;;;;55.20;29.70;;;8.90;1.00;;;;;;5051323;28;20826;-58
2021/11/17 04:16:13;;;;;;;57.10;32.37;;;8.90;1.00;;;;;;5052653;28;20964;-58
2021/11/17 04:18:44;;;;;;;61.63;34.20;;;8.50;1.00;;;;;;5052358;28;20435;-58
2021/11/17 04:21:19;;;;;;;57.30;33.07;;;8.60;1.00;;;;;;5040207;28;20530;-58
2021/11/17 04:24:13;;;;;;;67.90;33.20;;;8.70;1.00;;;;;;5072524;28;20936;-57
2021/11/17 04:26:48;;;;;;;60.30;32.80;;;8.60;1.00;;;;;;5072304;28;20434;-57
2021/11/17 04:29:25;;;;;;;60.00;32.40;;;8.60;1.00;;;;;;5072131;28;20430;-57
2021/11/17 04:32:00;;;;;;;60.53;32.67;;;8.50;1.00;;;;;;5072435;28;20680;-58
2021/11/17 04:34:59;;;;;;;60.17;33.93;;;8.60;1.00;;;;;;5072197;28;20938;-57
2021/11/17 04:37:25;;;;;;;59.93;30.87;;;;;;;;;;5070832;28;20458;-57
2021/11/17 04:39:51;;;;;;;55.90;32.50;;;;;;;;;;5072231;28;20430;-57
2021/11/17 04:43:04;;;;;;;56.43;33.50;;;8.60;1.00;;;;;;5072027;28;20438;-58
2021/11/17 04:45:42;;;;;;;54.17;28.40;;;8.50;1.00;;;;;;5071778;28;20451;-57
2021/11/17 04:48:10;;;;;;;60.30;31.00;;;8.60;1.00;;;;;;5071897;28;20449;-57
2021/11/17 04:50:45;;;;;;;56.67;31.40;;;8.80;1.00;;;;;;5071734;28;20507;-56
2021/11/17 04:53:25;;;;;;;68.20;35.13;;;8.60;1.00;;;;;;5072103;28;20469;-57
2021/11/17 04:56:16;;;;;;;59.23;32.83;;;8.70;1.00;;;;;;5071662;28;20432;-57
2021/11/17 04:58:58;;;;;;;59.50;32.17;;;8.80;1.00;;;;;;5071666;28;20437;-57
2021/11/17 05:01:32;;;;;;;60.30;32.27;;;8.70;1.00;;;;;;5070371;28;20572;-57
2021/11/17 05:04:16;;;;;;;63.97;34.03;;;8.90;1.00;;;;;;5071428;28;20468;-57
2021/11/17 05:06:50;;;;;;;56.67;33.07;;;8.90;1.00;;;;;;5071736;28;20433;-57
2021/11/17 05:09:41;;;;;;;59.77;33.50;;;8.70;1.00;;;;;;5070314;28;20495;-58
2021/11/17 05:12:22;;;;;;;60.93;32.10;;;8.80;1.00;;;;;;5070510;28;20403;-58
2021/11/17 05:15:06;;;;;;;63.83;32.23;;;8.70;1.00;;;;;;5052272;28;20442;-58
2021/11/17 05:17:53;;;;;;;66.37;33.70;;;8.90;1.00;;;;;;5051317;28;20402;-59
2021/11/17 05:20:34;;;;;;;59.60;31.70;;;8.80;1.00;;;;;;5051422;28;20439;-57
2021/11/17 05:23:42;;;;;;;59.73;31.73;;;8.90;1.00;;;;;;5051488;28;20423;-58
2021/11/17 05:26:21;;;;;;;58.60;30.20;;;8.80;1.00;;;;;;5051135;28;20775;-56
2021/11/17 05:29:12;;;;;;;58.93;31.07;;;8.70;1.00;;;;;;5050986;28;20903;-58
2021/11/17 05:32:20;;;;;;;59.27;31.70;;;8.90;1.00;;;;;;5051182;28;20430;-57
2021/11/17 05:34:57;;;;;;;57.20;28.90;;;8.90;1.00;;;;;;5050987;28;20495;-57
2021/11/17 05:37:47;;;;;;;57.10;31.20;;;8.90;1.00;;;;;;5050966;28;20435;-57
2021/11/17 05:40:22;;;;;;;58.20;31.90;;;8.80;1.00;;;;;;5051350;28;20446;-57
2021/11/17 05:43:05;;;;;;;51.93;30.23;;;8.80;1.00;;;;;;5050930;28;20819;-59
2021/11/17 05:45:46;;;;;;;66.60;30.27;;;8.80;1.00;;;;;;5050862;28;20437;-59
2021/11/17 05:48:30;;;;;;;61.97;32.20;;;8.70;1.00;;;;;;5050906;28;20545;-59
2021/11/17 05:51:40;;;;;;;61.30;31.90;;;8.70;1.00;;;;;;5050741;28;20434;-58
2021/11/17 05:54:05;;;;;;;55.57;31.03;;;8.60;1.00;;;;;;5030903;28;20670;-58
2021/11/17 05:56:31;;;;;;;62.00;30.70;;;;;;;;;;5051033;28;20521;-58
2021/11/17 05:59:08;;;;;;;62.13;33.43;;;8.60;1.00;;;;;;5050591;28;20176;-57
2021/11/17 06:02:12;;;;;;;69.00;31.10;;;8.50;1.00;;;;;;5050777;28;20439;-59
2021/11/17 06:04:37;;;;;;;75.70;34.73;;;8.60;1.00;;;;;;5039384;28;20550;-58
2021/11/17 06:07:03;;;;;;;62.87;33.17;;;;;;;;;;5050645;28;20442;-58
2021/11/17 06:09:29;;;;;;;66.17;34.90;;;;;;;;;;5050607;28;20554;-58
2021/11/17 06:11:55;;;;;;;74.70;35.00;;;;;;;;;;5050467;28;20565;-57
2021/11/17 06:14:27;;;;;;;64.40;32.83;;;8.70;1.00;;;;;;5050475;28;20891;-59
2021/11/17 06:17:06;;;;;;;79.40;34.60;;;8.60;1.00;;;;;;5050514;28;20781;-57
2021/11/17 06:19:36;;;;;;;64.17;32.83;;;8.60;1.00;;;;;;5050644;28;20435;-58
2021/11/17 06:22:05;;;;;;;68.73;34.87;;;8.60;1.00;;;;;;5050655;28;20409;-58
2021/11/17 06:24:33;;;;;;;66.43;33.00;;;8.60;1.00;;;;;;5049142;28;20942;-58
2021/11/17 06:26:58;;;;;;;65.33;33.83;;;8.70;1.00;;;;;;5050634;28;20492;-57
2021/11/17 06:29:29;;;;;;;59.63;31.17;;;8.40;1.00;;;;;;5050366;28;20439;-58
2021/11/17 06:31:55;;;;;;;64.80;31.93;;;8.60;1.00;;;;;;5050563;28;20187;-57
2021/11/17 06:34:35;;;;;;;64.23;32.07;;;8.40;1.00;;;;;;5050364;28;20990;-57
2021/11/17 06:37:04;;;;;;;62.90;31.30;;;8.40;1.00;;;;;;5050291;28;20817;-58
2021/11/17 06:39:31;;;;;;;59.90;31.20;;;8.40;1.00;;;;;;5050264;28;20449;-58
2021/11/17 06:41:59;;;;;;;61.13;31.13;;;8.30;1.00;;;;;;5050188;28;20420;-58
2021/11/17 06:44:25;;;;;;;66.50;31.73;;;;;;;;;;5050857;28;20433;-59
2021/11/17 06:46:51;;;;;;;62.30;31.23;;;8.40;1.00;;;;;;5052963;28;20561;-57
2021/11/17 06:49:18;;;;;;;58.83;32.00;;;8.40;1.00;;;;;;5054081;28;20471;-58
2021/11/17 06:51:44;;;;;;;71.87;33.17;;;;;;;;;;5053111;28;20470;-57
2021/11/17 06:54:09;;;;;;;66.50;32.20;;;;;;;;;;5054039;28;22321;-58
2021/11/17 06:56:35;;;;;;;59.60;31.20;;;;;;;;;;5054058;28;20446;-57
2021/11/17 06:59:02;;;;;;;61.40;32.10;;;;;;;;;;5054078;28;20428;-57
2021/11/17 07:01:28;;;;;;;62.20;30.60;;;;;;;;;;5054241;28;20409;-57
2021/11/17 07:03:54;;;;;;;62.83;31.90;;;8.50;1.00;;;;;;5054204;28;20490;-57
2021/11/17 07:06:19;;;;;;;60.07;30.97;;;8.60;1.00;;;;;;5053439;28;20431;-57
2021/11/17 07:08:45;;;;;;;57.60;28.57;;;;;;;;;;5053992;28;20185;-58
2021/11/17 07:11:11;;;;;;;48.40;26.10;;;;;;;;;;5053767;28;20208;-57
2021/11/17 07:13:37;;;;;;;49.87;27.40;;;;;;;;;;5053650;28;20899;-58
2021/11/17 07:16:03;;;;;;;66.50;28.67;;;;;;;;;;5053750;28;20820;-59
2021/11/17 07:18:32;;;;;;;57.43;28.70;;;;;;;;;;5053230;28;20435;-58
2021/11/17 07:20:58;;;;;;;49.70;27.30;;;8.40;1.00;;;;;;5052248;28;20454;-58
2021/11/17 07:23:23;;;;;;;56.63;28.80;;;;;;;;;;5053448;28;20427;-58
2021/11/17 07:25:49;;;;;;;53.57;28.13;;;;;;;;;;5053545;28;20295;-58
2021/11/17 07:28:15;;;;;;;67.53;29.07;;;8.70;1.00;;;;;;5053661;28;20410;-58
2021/11/17 07:30:42;;;;;;;52.80;28.27;;;8.70;1.00;;;;;;5053289;28;20948;-57
2021/11/17 07:33:09;;;;;;;52.87;27.27;;;8.30;1.00;;;;;;5053515;28;20192;-59
2021/11/17 07:35:38;;;;;;;52.10;27.20;;;9.00;1.00;;;;;;5053312;28;20818;-59
2021/11/17 07:38:07;;;;;;;48.27;24.97;;;8.70;1.00;;;;;;5053410;28;20443;-58
2021/11/17 07:40:36;;;;;;;51.63;27.30;;;8.80;1.00;;;;;;5052996;28;20413;-59
2021/11/17 07:43:05;;;;;;;51.77;27.40;;;8.70;1.00;;;;;;5053319;28;20458;-57
2021/11/17 07:45:32;;;;;;;57.63;28.67;;;8.60;1.00;;;;;;5052661;28;20466;-59
2021/11/17 07:47:58;;;;;;;46.17;25.97;;;8.40;1.00;;;;;;5051836;28;20430;-58
2021/11/17 07:50:24;;;;;;;54.83;27.43;;;;;;;;;;5053172;28;20522;-58
2021/11/17 07:52:50;;;;;;;52.43;27.20;;;;;;;;;;5052801;28;20993;-58
2021/11/17 07:55:18;;;;;;;48.83;25.50;;;8.60;1.00;;;;;;5053247;28;20501;-60
2021/11/17 07:57:46;;;;;;;46.50;25.50;;;8.60;1.00;;;;;;5052087;28;20475;-59
2021/11/17 08:00:18;;;;;;;53.37;25.13;;;8.70;1.00;;;;;;5052984;28;20445;-59
2021/11/17 08:02:45;;;;;;;50.67;27.57;;;8.50;1.00;;;;;;5052505;28;20482;-58
2021/11/17 08:05:11;;;;;;;53.57;26.23;;;8.80;1.00;;;;;;5052839;28;20482;-58
2021/11/17 08:07:38;;;;;;;46.27;25.00;;;8.90;1.00;;;;;;5052521;28;20439;-58
2021/11/17 08:10:07;;;;;;;48.07;25.00;;;8.70;1.00;;;;;;5052651;28;20421;-58
2021/11/17 08:12:33;;;;;;;45.53;24.70;;;;;;;;;;5052728;28;20474;-58
2021/11/17 08:14:59;;;;;;;48.90;25.50;;;8.50;1.00;;;;;;5052350;28;20932;-58
2021/11/17 08:17:25;;;;;;;47.20;24.17;;;;;;;;;;5052785;28;20930;-58
2021/11/17 08:19:50;;;;;;;49.80;27.40;;;8.90;1.00;;;;;;5052385;28;20191;-58
2021/11/17 08:22:16;;;;;;;51.33;25.37;;;8.70;1.00;;;;;;5052317;28;20413;-58
2021/11/17 08:24:43;;;;;;;47.43;25.60;;;8.80;1.00;;;;;;5052071;28;20212;-58
2021/11/17 08:27:18;;;;;;;54.23;25.67;;;8.80;1.00;;;;;;5052315;28;20449;-58
2021/11/17 08:29:44;;;;;;;49.63;26.13;;;;;;;;;;5051962;28;20900;-58
2021/11/17 08:32:09;;;;;;;42.73;23.60;;;8.70;1.00;;;;;;5052081;28;20497;-58
2021/11/17 08:34:38;;;;;;;47.30;23.70;;;;;;;;;;5052054;28;20430;-57
2021/11/17 08:37:04;;;;;;;48.03;24.93;;;9.00;1.00;;;;;;5051960;28;20503;-59
2021/11/17 08:39:30;;;;;;;47.00;24.93;;;;;;;;;;5052231;28;20443;-59
2021/11/17 08:41:56;;;;;;;52.83;25.33;;;;;;;;;;5051978;28;20434;-58
2021/11/17 08:44:22;;;;;;;44.40;24.00;;;8.70;1.00;;;;;;5052035;28;20449;-58
2021/11/17 08:46:47;;;;;;;52.00;25.50;;;;;;;;;;5050472;28;20497;-58
2021/11/17 08:49:13;;;;;;;42.63;23.10;;;;;;;;;;5051606;28;20199;-58
2021/11/17 08:51:39;;;;;;;42.83;23.43;;;;;;;;;;5051622;28;20430;-57
2021/11/17 08:54:06;;;;;;;42.30;24.20;;;9.40;1.00;;;;;;5051164;28;20468;-59
2021/11/17 08:56:37;;;;;;;43.27;22.53;;;9.40;1.00;;;;;;5052259;28;20765;-58
2021/11/17 08:59:04;;;;;;;41.97;22.97;;;9.50;1.00;;;;;;5051511;28;20496;-58
2021/11/17 09:01:30;;;;;;;41.40;24.13;;;9.50;1.00;;;;;;5051384;28;21019;-59
2021/11/17 09:03:57;;;;;;;45.90;23.80;;;9.70;1.00;;;;;;5051280;28;20805;-58
2021/11/17 09:06:23;;;;;;;44.17;24.60;;;9.60;1.00;;;;;;5051729;28;20431;-59
2021/11/17 09:08:49;;;;;;;53.27;24.27;;;;;;;;;;5051490;28;20458;-58
2021/11/17 09:11:17;;;;;;;43.17;23.43;;;9.60;1.00;;;;;;5051413;28;20219;-58
2021/11/17 09:13:44;;;;;;;44.87;24.60;;;9.10;1.00;;;;;;5051495;28;20435;-58
2021/11/17 09:16:10;;;;;;;45.17;23.70;;;9.20;1.00;;;;;;5051291;28;20767;-58
2021/11/17 09:18:37;;;;;;;44.13;25.03;;;9.70;1.00;;;;;;5051161;28;20576;-58
2021/11/17 09:21:06;;;;;;;47.90;24.23;;;9.40;1.00;;;;;;5051114;28;20955;-58
2021/11/17 09:23:32;;;;;;;54.53;27.27;;;9.80;1.00;;;;;;5051479;28;20420;-57
2021/11/17 09:26:00;;;;;;;45.10;23.33;;;9.60;1.00;;;;;;5051140;28;20446;-59
2021/11/17 09:28:27;;;;;;;48.93;25.87;;;9.40;1.00;;;;;;5051116;28;20453;-58
2021/11/17 09:30:54;;;;;;;42.50;22.67;;;9.50;1.00;;;;;;5051191;28;20694;-58
2021/11/17 09:33:22;;;;;;;41.83;22.53;;;9.50;1.00;;;;;;5050937;28;20474;-59
2021/11/17 09:35:48;;;;;;;47.27;25.00;;;;;;;;;;5051403;28;20493;-59
2021/11/17 09:38:14;;;;;;;48.13;25.97;;;9.40;1.00;;;;;;5050771;28;20451;-58
2021/11/17 09:40:54;;;;;;;43.73;25.07;;;9.50;1.00;;;;;;5050071;28;20417;-57
2021/11/17 09:43:24;;;;;;;43.03;23.50;;;9.30;1.00;;;;;;5050741;28;20437;-57
2021/11/17 09:45:51;;;;;;;47.03;24.30;;;9.40;1.00;;;;;;5050594;28;20878;-59
2021/11/17 09:48:24;;;;;;;44.00;23.17;;;9.50;1.00;;;;;;5050613;28;20475;-58
2021/11/17 09:51:07;;;;;;;47.37;23.20;;;9.50;1.00;;;;;;5050950;28;20435;-58
2021/11/17 09:54:01;;;;;;;45.90;23.63;;;9.60;1.00;;;;;;5050749;28;20406;-59
2021/11/17 09:56:40;;;;;;;48.87;24.80;;;9.60;1.00;;;;;;5050624;28;20524;-58
2021/11/17 09:59:14;;;;;;;55.47;26.40;;;9.60;1.00;;;;;;5050699;28;20397;-58
2021/11/17 10:01:53;;;;;;;43.20;23.33;;;9.60;1.00;;;;;;5049248;28;20431;-57
2021/11/17 10:04:53;;;;;;;47.17;23.20;;;9.70;1.00;;;;;;5049992;28;20488;-56
2021/11/17 10:13:34;;;;;;;46.13;23.50;;;9.80;1.00;;;;;;5050839;28;20450;-58
2021/11/17 10:16:00;;;;;;;40.80;22.67;;;;;;;;;;5050623;28;20416;-58
2021/11/17 10:18:31;;;;;;;40.63;22.20;;;9.80;1.00;;;;;;5050526;28;20439;-59
2021/11/17 10:21:01;;;;;;;45.50;21.90;;;9.90;1.00;;;;;;5049674;28;20544;-58
2021/11/17 10:23:42;;;;;;;46.60;23.60;;;9.90;1.00;;;;;;5050492;28;20442;-58
2021/11/17 10:26:14;;;;;;;39.47;21.40;;;9.70;1.00;;;;;;5049348;28;20457;-58
2021/11/17 10:28:40;;;;;;;39.20;22.67;;;9.80;1.00;;;;;;5050660;28;20947;-58
2021/11/17 10:31:38;;;;;;;34.00;20.07;;;9.70;1.00;;;;;;5051086;28;20443;-58
2021/11/17 10:34:10;;;;;;;43.83;19.60;;;9.80;1.00;;;;;;5047447;28;20709;-58
2021/11/17 10:37:03;;;;;;;36.60;20.47;;;9.80;1.00;;;;;;5050364;28;20504;-57
2021/11/17 10:39:37;;;;;;;39.00;19.37;;;9.70;1.00;;;;;;5050392;28;20546;-60
2021/11/17 10:42:12;;;;;;;28.90;16.53;;;9.60;1.00;;;;;;5050382;28;20940;-58
2021/11/17 10:45:00;;;;;;;33.60;19.03;;;9.40;1.00;;;;;;5050467;28;20444;-57
2021/11/17 10:47:28;;;;;;;33.40;17.07;;;9.50;1.00;;;;;;5050357;28;20461;-58
2021/11/17 10:49:55;;;;;;;29.60;18.00;;;9.30;1.00;;;;;;5049915;28;20629;-58
2021/11/17 10:52:29;;;;;;;33.20;16.40;;;9.40;1.00;;;;;;5050271;28;20410;-58
2021/11/17 10:54:57;;;;;;;30.20;16.10;;;9.30;1.00;;;;;;5049952;28;20552;-57
2021/11/17 10:57:26;;;;;;;32.03;16.83;;;9.30;1.00;;;;;;5056694;28;20409;-58
2021/11/17 10:59:53;;;;;;;25.97;15.53;;;9.30;1.00;;;;;;5069818;28;20446;-59
2021/11/17 11:02:21;;;;;;;24.60;13.93;;;9.30;1.00;;;;;;5070144;28;20466;-58
2021/11/17 11:05:06;;;;;;;22.37;12.93;;;9.30;1.00;;;;;;5069613;28;20468;-58
2021/11/17 11:07:48;;;;;;;22.57;13.20;;;9.30;1.00;;;;;;5069956;28;20441;-57
2021/11/17 11:10:21;;;;;;;26.10;13.37;;;;;;;;;;5069968;28;20770;-59
2021/11/17 11:12:49;;;;;;;23.90;13.63;;;9.50;1.00;;;;;;5070030;28;20469;-59
2021/11/17 11:15:21;;;;;;;25.90;13.33;;;9.50;1.00;;;;;;5070347;28;20433;-57
2021/11/17 11:18:06;;;;;;;22.00;12.37;;;9.60;1.00;;;;;;5069933;28;20930;-57
2021/11/17 11:20:44;;;;;;;24.60;14.07;;;9.60;1.00;;;;;;5070001;28;20521;-58
2021/11/17 11:23:18;;;;;;;19.40;12.67;;;9.90;1.00;;;;;;5068416;28;20446;-59
2021/11/17 11:25:49;;;;;;;22.40;13.00;;;10.00;1.00;;;;;;5069567;28;20462;-58
2021/11/17 11:28:21;;;;;;;21.53;12.00;;;10.20;1.00;;;;;;5069489;28;20409;-59
2021/11/17 11:31:10;;;;;;;21.40;12.03;;;10.30;1.00;;;;;;5071247;28;20765;-58
2021/11/17 11:33:50;;;;;;;22.10;12.83;;;10.20;1.00;;;;;;5073195;28;20438;-58
2021/11/17 11:36:16;;;;;;;17.57;10.80;;;;;;;;;;5073229;28;20448;-58
2021/11/17 11:38:43;;;;;;;24.97;13.43;;;10.20;1.00;;;;;;5073367;28;20413;-58
2021/11/17 11:41:27;;;;;;;16.93;10.53;;;10.20;1.00;;;;;;5073213;28;20655;-57
2021/11/17 11:44:24;;;;;;;17.20;11.00;;;10.20;1.00;;;;;;5073228;28;20441;-58
2021/11/17 11:46:59;;;;;;;16.77;10.00;;;10.10;1.00;;;;;;5072987;28;20471;-58
2021/11/17 11:49:56;;;;;;;16.40;10.90;;;10.10;1.00;;;;;;5073176;28;20438;-59
2021/11/17 11:52:30;;;;;;;20.30;11.37;;;10.30;1.00;;;;;;5068386;28;20443;-58
2021/11/17 11:54:56;;;;;;;17.00;9.77;;;;;;;;;;5073096;28;20415;-58
2021/11/17 11:57:22;;;;;;;13.53;9.80;;;;;;;;;;5072824;28;20413;-57
2021/11/17 11:59:52;;;;;;;13.90;8.63;;;10.30;1.00;;;;;;5072943;28;20787;-59
2021/11/17 12:02:20;;;;;;;15.70;8.90;;;9.80;1.00;;;;;;5073076;28;20440;-57
2021/11/17 12:04:49;;;;;;;12.10;6.73;;;9.70;1.00;;;;;;5072718;28;20492;-57
2021/11/17 12:07:19;;;;;;;10.83;7.70;;;;;;;;;;5072377;28;21022;-57
2021/11/17 12:10:08;;;;;;;10.40;6.43;;;9.70;1.00;;;;;;5071401;28;20442;-58
2021/11/17 12:12:38;;;;;;;6.57;5.87;;;9.60;1.00;;;;;;5072757;28;20415;-57
2021/11/17 12:15:24;;;;;;;10.70;5.17;;;9.50;1.00;;;;;;5072655;28;20416;-57
2021/11/17 12:18:08;;;;;;;8.60;5.87;;;9.30;1.00;;;;;;5072655;28;20416;-57
2021/11/17 12:20:38;;;;;;;7.43;4.90;;;9.30;1.00;;;;;;5072284;28;20530;-59
2021/11/17 12:23:34;;;;;;;9.50;5.77;;;9.50;1.00;;;;;;5072563;28;20466;-59
2021/11/17 12:26:16;;;;;;;6.53;5.60;;;;;;;;;;5067089;28;20419;-57
2021/11/17 12:28:48;;;;;;;8.20;6.27;;;9.20;1.00;;;;;;5072069;28;20509;-57
2021/11/17 12:31:21;;;;;;;10.73;5.83;;;8.90;1.00;;;;;;5072046;28;20438;-57
2021/11/17 12:33:59;;;;;;;8.43;5.60;;;9.30;1.00;;;;;;5072116;28;20496;-57
2021/11/17 12:36:32;;;;;;;8.27;6.20;;;9.30;1.00;;;;;;5070402;28;20437;-58
2021/11/17 12:39:10;;;;;;;8.60;6.47;;;9.60;1.00;;;;;;5071848;28;20562;-57
2021/11/17 12:41:38;;;;;;;9.50;6.10;;;;;;;;;;5071588;28;20403;-57
2021/11/17 12:44:03;;;;;;;8.20;5.93;;;9.10;1.00;;;;;;5071877;28;20443;-58
2021/11/17 12:46:58;;;;;;;7.93;5.27;;;9.40;1.00;;;;;;5071518;28;20445;-57
2021/11/17 12:49:32;;;;;;;10.73;6.27;;;9.40;1.00;;;;;;5053479;28;20682;-58
2021/11/17 12:52:09;;;;;;;9.50;5.73;;;;;;;;;;5051722;28;20900;-58
2021/11/17 12:54:55;;;;;;;8.23;5.83;;;8.80;1.00;;;;;;5051392;28;20508;-59
2021/11/17 12:58:00;;;;;;;7.97;5.20;;;8.80;1.00;;;;;;5051887;28;20449;-58
2021/11/17 13:00:43;;;;;;;7.17;4.27;;;8.50;1.00;;;;;;5038515;28;20473;-58
2021/11/17 13:03:26;;;;;;;6.97;4.73;;;8.40;1.00;;;;;;5051717;28;20450;-58
2021/11/17 13:06:50;;;;;;;6.20;4.80;;;8.20;1.00;;;;;;5051542;28;20956;-58
2021/11/17 13:09:28;;;;;;;5.50;4.17;;;8.20;1.00;;;;;;5028916;28;20554;-58
2021/11/17 13:12:09;;;;;;;6.83;5.27;;;8.30;1.00;;;;;;5028777;28;20805;-57
2021/11/17 13:14:44;;;;;;;6.33;4.33;;;8.30;1.00;;;;;;5046766;28;21008;-59
2021/11/17 13:17:33;;;;;;;6.10;4.00;;;8.30;1.00;;;;;;5051410;28;20468;-58
2021/11/17 13:20:28;;;;;;;5.50;4.60;;;8.10;1.00;;;;;;5051329;28;20439;-58
2021/11/17 13:23:16;;;;;;;4.23;3.70;;;8.00;1.00;;;;;;5051030;28;20453;-59
2021/11/17 13:25:47;;;;;;;5.50;4.00;;;8.10;1.00;;;;;;5050863;28;20466;-59
2021/11/17 13:28:32;;;;;;;4.93;4.03;;;;;;;;;;5051256;28;20899;-58
2021/11/17 13:31:18;;;;;;;5.10;4.00;;;8.00;1.00;;;;;;5051333;28;20499;-57
2021/11/17 13:33:51;;;;;;;5.10;3.87;;;;;;;;;;5050568;28;20435;-59
2021/11/17 13:36:16;;;;;;;5.40;4.30;;;8.40;1.00;;;;;;5050915;28;20442;-58
2021/11/17 13:38:58;;;;;;;8.10;5.13;;;8.30;1.00;;;;;;5050686;28;20437;-58
2021/11/17 13:41:24;;;;;;;6.37;4.87;;;;;;;;;;5051098;28;20185;-58
2021/11/17 13:43:50;;;;;;;6.17;4.93;;;8.20;1.00;;;;;;5050665;28;20514;-58
2021/11/17 13:46:20;;;;;;;5.87;5.27;;;;;;;;;;5050726;28;20458;-58
2021/11/17 13:48:48;;;;;;;6.20;4.30;;;;;;;;;;5050746;28;20512;-58
2021/11/17 13:51:15;;;;;;;5.93;4.87;;;;;;;;;;5050582;28;20920;-60
2021/11/17 13:53:42;;;;;;;6.07;5.50;;;8.50;1.00;;;;;;5050074;28;20401;-58
2021/11/17 13:56:12;;;;;;;7.63;5.37;;;8.30;1.00;;;;;;5050472;28;20785;-57
2021/11/17 13:58:38;;;;;;;6.13;5.00;;;8.50;1.00;;;;;;5050906;28;20827;-60
2021/11/17 14:01:06;;;;;;;5.83;4.67;;;8.40;1.00;;;;;;5050411;28;20439;-58
2021/11/17 14:03:32;;;;;;;6.97;5.20;;;;;;;;;;5050606;28;20458;-56
2021/11/17 14:06:03;;;;;;;5.83;4.93;;;8.10;1.00;;;;;;5050297;28;20490;-57
2021/11/17 14:08:30;;;;;;;6.93;5.90;;;8.10;1.00;;;;;;5050750;28;20462;-58
2021/11/17 14:10:56;;;;;;;10.33;7.23;;;;;;;;;;5050339;28;20435;-59
2021/11/17 14:13:22;;;;;;;6.63;5.40;;;;;;;;;;5070507;28;20504;-57
2021/11/17 14:15:48;;;;;;;8.30;6.00;;;;;;;;;;5070623;28;20477;-57
2021/11/17 14:18:14;;;;;;;5.70;4.37;;;8.20;1.00;;;;;;5070457;28;20453;-58
2021/11/17 14:20:41;;;;;;;5.83;5.10;;;8.30;1.00;;;;;;5069317;28;20430;-57
2021/11/17 14:23:07;;;;;;;5.30;4.63;;;8.20;1.00;;;;;;5068959;28;20912;-58
2021/11/17 14:25:34;;;;;;;6.50;4.53;;;8.10;1.00;;;;;;5070511;28;20470;-58
2021/11/17 14:28:04;;;;;;;6.00;4.17;;;8.10;1.00;;;;;;5070403;28;20423;-56
2021/11/17 14:30:47;;;;;;;6.97;4.10;;;8.10;1.00;;;;;;5070588;28;20482;-59
2021/11/17 14:33:15;;;;;;;6.20;4.37;;;;;;;;;;5069860;28;21009;-58
2021/11/17 14:35:41;;;;;;;8.17;4.57;;;8.00;1.00;;;;;;5070591;28;20962;-57
2021/11/17 14:38:10;;;;;;;8.70;5.37;;;8.30;1.00;;;;;;5070290;28;20413;-57
2021/11/17 14:40:36;;;;;;;9.73;5.40;;;;;;;;;;5067524;28;20181;-57
2021/11/17 14:43:02;;;;;;;6.00;4.97;;;;;;;;;;5050146;28;20439;-58
2021/11/17 14:45:30;;;;;;;6.43;4.13;;;8.30;1.00;;;;;;5049889;28;20452;-58
2021/11/17 14:47:56;;;;;;;7.23;5.50;;;;;;;;;;5050117;28;20446;-58
2021/11/17 14:50:22;;;;;;;6.67;4.43;;;8.50;1.00;;;;;;5050066;28;20538;-57
2021/11/17 14:52:48;;;;;;;6.23;4.47;;;;;;;;;;5050219;28;20494;-57
2021/11/17 14:55:18;;;;;;;5.93;4.33;;;8.30;1.00;;;;;;5050063;28;20935;-58
2021/11/17 14:57:45;;;;;;;5.17;3.90;;;8.20;1.00;;;;;;5050316;28;20413;-58
2021/11/17 15:00:15;;;;;;;5.20;4.53;;;8.20;1.00;;;;;;5050092;28;20846;-57
2021/11/17 15:02:41;;;;;;;4.10;3.70;;;8.30;1.00;;;;;;5054514;28;20488;-57
2021/11/17 15:05:08;;;;;;;6.07;4.40;;;8.40;1.00;;;;;;5070617;28;20466;-58
2021/11/17 15:07:34;;;;;;;8.20;5.37;;;8.40;1.00;;;;;;5073741;28;20804;-57
2021/11/17 15:10:00;;;;;;;5.00;4.50;;;8.40;1.00;;;;;;5074060;28;20393;-57
2021/11/17 15:12:32;;;;;;;6.87;4.80;;;8.30;1.00;;;;;;5073928;28;20426;-57
2021/11/17 15:14:59;;;;;;;6.03;5.03;;;8.40;1.00;;;;;;5073524;28;20665;-58
2021/11/17 15:17:25;;;;;;;8.00;4.20;;;;;;;;;;5073772;28;21261;-58
2021/11/17 15:19:51;;;;;;;5.43;4.10;;;;;;;;;;5073501;28;20500;-57
2021/11/17 15:22:19;;;;;;;5.70;4.80;;;;;;;;;;5067419;28;20446;-59
2021/11/17 15:24:45;;;;;;;5.40;3.93;;;8.60;1.00;;;;;;5059905;28;20524;-58
2021/11/17 15:27:26;;;;;;;5.80;5.27;;;8.70;1.00;;;;;;5053512;28;20438;-58
2021/11/17 15:29:52;;;;;;;6.13;3.83;;;8.70;1.00;;;;;;5051673;28;20505;-58
2021/11/17 15:32:19;;;;;;;4.43;3.83;;;8.90;1.00;;;;;;5052553;28;20443;-60
2021/11/17 15:34:46;;;;;;;4.57;4.00;;;8.60;1.00;;;;;;5051966;28;20767;-62
2021/11/17 15:37:12;;;;;;;4.20;3.80;;;8.50;1.00;;;;;;5052413;28;20484;-60
2021/11/17 15:39:37;;;;;;;5.43;4.67;;;8.50;1.00;;;;;;5051879;28;20439;-60
2021/11/17 15:42:04;;;;;;;6.30;5.10;;;8.50;1.00;;;;;;5049952;28;20437;-62
2021/11/17 15:44:30;;;;;;;6.37;4.37;;;;;;;;;;5055260;28;20206;-57
2021/11/17 15:46:58;;;;;;;7.00;4.20;;;8.50;1.00;;;;;;5051835;28;20445;-56
2021/11/17 15:49:24;;;;;;;4.10;3.70;;;;;;;;;;5051890;28;20439;-57
2021/11/17 15:51:50;;;;;;;5.13;4.00;;;8.40;1.00;;;;;;5051912;28;20449;-57
2021/11/17 15:54:17;;;;;;;6.03;4.70;;;8.30;1.00;;;;;;5051754;28;20447;-58
2021/11/17 15:56:44;;;;;;;6.77;4.90;;;;;;;;;;5051953;28;20624;-57
2021/11/17 15:59:12;;;;;;;5.83;4.60;;;;;;;;;;5052541;28;20454;-58
2021/11/17 16:01:40;;;;;;;5.77;4.90;;;8.50;1.00;;;;;;5050820;28;20494;-58
2021/11/17 16:04:06;;;;;;;5.43;4.93;;;8.70;1.00;;;;;;5049786;28;20463;-57
2021/11/17 16:06:48;;;;;;;8.27;4.90;;;8.50;1.00;;;;;;5052538;28;20911;-59
2021/11/17 16:09:14;;;;;;;7.10;4.80;;;;;;;;;;5051500;28;20446;-57
2021/11/17 16:11:39;;;;;;;7.80;4.70;;;8.40;1.00;;;;;;5056156;28;20448;-58
2021/11/17 16:14:05;;;;;;;5.70;4.63;;;;;;;;;;5057287;28;20451;-59
2021/11/17 16:16:31;;;;;;;6.87;4.40;;;8.50;1.00;;;;;;5051777;28;20634;-58
2021/11/17 16:18:56;;;;;;;5.03;4.53;;;8.60;1.00;;;;;;5051441;28;20809;-55
2021/11/17 16:21:23;;;;;;;8.50;4.40;;;;;;;;;;5051148;28;20639;-58